createdAt,value
2023-01-17T00:02:19.720Z,42.85
2023-01-17T00:05:05.763Z,43.50
2023-01-17T00:07:51.798Z,44.60
2023-01-17T00:10:26.036Z,41.33
2023-01-17T00:12:59.875Z,40.42
2023-01-17T00:15:29.077Z,41.50
2023-01-17T00:17:56.309Z,42.88
2023-01-17T00:20:45.466Z,42.80
2023-01-17T00:24:00.615Z,42.88
2023-01-17T00:26:27.727Z,45.60
2023-01-17T00:28:54.554Z,44.47
2023-01-17T00:31:21.424Z,43.95
2023-01-17T00:33:48.279Z,44.00
2023-01-17T00:36:15.347Z,44.80
2023-01-17T00:38:42.259Z,44.03
2023-01-17T00:41:13.469Z,46.15
2023-01-17T00:43:59.220Z,44.08
2023-01-17T00:46:44.702Z,45.60
2023-01-17T00:49:30.008Z,45.03
2023-01-17T00:52:15.798Z,41.80
2023-01-17T00:55:01.579Z,44.67
2023-01-17T00:57:47.062Z,44.25
2023-01-17T01:00:33.601Z,42.58
2023-01-17T01:03:19.226Z,42.70
2023-01-17T01:06:04.643Z,39.70
2023-01-17T01:08:50.094Z,41.67
2023-01-17T01:11:39.867Z,40.00
2023-01-17T01:14:29.555Z,37.53
2023-01-17T01:17:15.005Z,39.95
2023-01-17T01:20:00.344Z,40.38
2023-01-17T01:22:45.880Z,44.05
2023-01-17T01:25:31.965Z,39.72
2023-01-17T01:28:32.202Z,38.83
2023-01-17T01:31:21.769Z,43.05
2023-01-17T01:33:50.581Z,40.47
2023-01-17T01:36:17.459Z,39.05
2023-01-17T01:38:44.302Z,36.05
2023-01-17T01:41:11.526Z,37.70
2023-01-17T01:43:52.242Z,37.85
2023-01-17T01:46:41.413Z,42.80
2023-01-17T01:49:24.867Z,38.88
2023-01-17T01:51:59.608Z,39.20
2023-01-17T01:54:36.748Z,40.92
2023-01-17T01:57:08.555Z,41.65
2023-01-17T01:59:42.449Z,38.38
2023-01-17T02:02:09.491Z,44.47
2023-01-17T02:04:37.370Z,40.58
2023-01-17T02:07:15.517Z,45.80
2023-01-17T02:09:42.790Z,42.03
2023-01-17T02:12:10.114Z,43.13
2023-01-17T02:14:36.976Z,44.38
2023-01-17T02:17:21.441Z,45.60
2023-01-17T02:20:37.427Z,44.70
2023-01-17T02:24:07.567Z,43.90
2023-01-17T02:27:04.351Z,44.30
2023-01-17T02:29:52.375Z,47.83
2023-01-17T02:32:46.605Z,43.05
2023-01-17T02:35:33.487Z,46.30
2023-01-17T02:38:31.488Z,48.90
2023-01-17T02:41:11.237Z,45.53
2023-01-17T02:43:40.570Z,43.13
2023-01-17T02:46:09.698Z,45.80
2023-01-17T02:48:38.609Z,45.08
2023-01-17T02:51:39.055Z,42.72
2023-01-17T02:54:32.136Z,43.47
2023-01-17T02:57:27.734Z,41.97
2023-01-17T03:00:27.338Z,41.80
2023-01-17T03:03:15.570Z,46.22
2023-01-17T03:06:11.531Z,47.38
2023-01-17T03:08:48.392Z,40.30
2023-01-17T03:11:16.420Z,42.75
2023-01-17T03:13:43.795Z,44.50
2023-01-17T03:16:24.754Z,42.28
2023-01-17T03:18:53.746Z,46.15
2023-01-17T03:21:23.091Z,43.65
2023-01-17T03:23:50.059Z,45.00
2023-01-17T03:26:17.462Z,48.92
2023-01-17T03:28:44.906Z,40.05
2023-01-17T03:31:19.968Z,43.42
2023-01-17T03:33:47.341Z,45.15
2023-01-17T03:36:14.413Z,44.90
2023-01-17T03:38:41.307Z,43.53
2023-01-17T03:41:08.516Z,43.55
2023-01-17T03:43:35.462Z,46.13
2023-01-17T03:46:20.701Z,44.15
2023-01-17T03:48:47.742Z,43.22
2023-01-17T03:51:14.936Z,42.83
2023-01-17T03:53:42.453Z,43.38
2023-01-17T03:56:10.049Z,42.33
2023-01-17T03:58:36.884Z,41.65
2023-01-17T04:01:04.253Z,41.08
2023-01-17T04:03:31.659Z,42.60
2023-01-17T04:05:58.502Z,37.45
2023-01-17T04:08:25.533Z,44.90
2023-01-17T04:10:52.371Z,40.80
2023-01-17T04:13:19.232Z,46.80
2023-01-17T04:15:49.083Z,40.15
2023-01-17T04:18:19.274Z,42.55
2023-01-17T04:20:46.788Z,40.00
2023-01-17T04:23:13.705Z,40.75
2023-01-17T04:25:40.598Z,43.40
2023-01-17T04:28:07.657Z,42.63
2023-01-17T04:30:34.788Z,44.30
2023-01-17T04:33:01.660Z,40.28
2023-01-17T04:35:33.323Z,44.38
2023-01-17T04:38:00.874Z,43.58
2023-01-17T04:40:29.515Z,44.55
2023-01-17T04:42:58.191Z,44.17
2023-01-17T04:45:25.318Z,43.75
2023-01-17T04:47:52.209Z,47.17
2023-01-17T04:50:19.285Z,51.28
2023-01-17T04:52:46.160Z,46.33
2023-01-17T04:55:13.122Z,52.63
2023-01-17T04:57:40.001Z,44.97
2023-01-17T05:00:08.055Z,46.20
2023-01-17T05:02:35.046Z,47.42
2023-01-17T05:05:02.025Z,49.53
2023-01-17T05:07:28.937Z,51.22
2023-01-17T05:09:55.796Z,50.55
2023-01-17T05:12:22.621Z,45.50
2023-01-17T05:14:49.515Z,43.53
2023-01-17T05:17:16.385Z,43.45
2023-01-17T05:19:43.233Z,44.10
2023-01-17T05:22:15.306Z,42.28
2023-01-17T05:24:47.438Z,42.50
2023-01-17T05:27:15.132Z,35.35
2023-01-17T05:29:42.274Z,39.55
2023-01-17T05:32:09.376Z,37.63
2023-01-17T05:34:36.311Z,37.65
2023-01-17T05:37:03.228Z,39.50
2023-01-17T05:39:31.041Z,35.15
2023-01-17T05:41:58.977Z,34.45
2023-01-17T05:44:30.348Z,34.38
2023-01-17T05:46:57.214Z,33.03
2023-01-17T05:49:24.119Z,31.75
2023-01-17T05:51:53.460Z,32.50
2023-01-17T05:54:21.644Z,32.28
2023-01-17T05:56:48.482Z,34.72
2023-01-17T05:59:17.247Z,34.03
2023-01-17T06:01:46.142Z,31.10
2023-01-17T06:04:13.041Z,31.10
2023-01-17T06:06:39.946Z,31.33
2023-01-17T06:09:07.102Z,32.90
2023-01-17T06:11:34.233Z,34.13
2023-01-17T06:14:01.044Z,35.72
2023-01-17T06:16:28.045Z,34.88
2023-01-17T06:18:55.124Z,36.15
2023-01-17T06:21:22.108Z,33.72
2023-01-17T06:23:49.042Z,36.28
2023-01-17T06:26:15.983Z,36.15
2023-01-17T06:28:42.890Z,37.00
2023-01-17T06:31:09.922Z,35.08
2023-01-17T06:33:38.814Z,34.83
2023-01-17T06:36:06.285Z,35.92
2023-01-17T06:38:33.249Z,36.55
2023-01-17T06:41:04.691Z,33.15
2023-01-17T06:43:33.641Z,38.22
2023-01-17T06:46:01.999Z,37.08
2023-01-17T06:48:29.143Z,33.33
2023-01-17T06:50:58.257Z,38.22
2023-01-17T06:53:25.216Z,37.40
2023-01-17T06:55:55.115Z,38.25
2023-01-17T06:58:21.931Z,35.60
2023-01-17T07:00:48.892Z,35.38
2023-01-17T07:03:24.341Z,40.00
2023-01-17T07:05:51.909Z,44.55
2023-01-17T07:08:20.481Z,39.95
2023-01-17T07:10:49.016Z,41.40
2023-01-17T07:13:16.165Z,43.13
2023-01-17T07:15:43.004Z,38.25
2023-01-17T07:18:09.845Z,42.83
2023-01-17T07:20:38.387Z,39.90
2023-01-17T07:23:06.133Z,36.58
2023-01-17T07:25:33.069Z,37.63
2023-01-17T07:27:59.948Z,37.63
2023-01-17T07:30:27.064Z,36.40
2023-01-17T07:32:55.748Z,37.25
2023-01-17T07:35:27.115Z,37.70
2023-01-17T07:37:54.999Z,37.65
2023-01-17T07:40:22.931Z,34.78
2023-01-17T07:42:49.921Z,39.85
2023-01-17T07:45:17.264Z,38.10
2023-01-17T07:47:44.726Z,37.38
2023-01-17T07:50:13.520Z,37.10
2023-01-17T07:52:40.613Z,35.92
2023-01-17T07:55:08.873Z,34.03
2023-01-17T07:57:35.887Z,36.53
2023-01-17T08:00:04.196Z,34.55
2023-01-17T08:02:31.244Z,38.85
2023-01-17T08:04:58.151Z,38.45
2023-01-17T08:07:25.191Z,37.28
2023-01-17T08:09:57.208Z,40.75
2023-01-17T08:12:26.030Z,39.15
2023-01-17T08:14:53.354Z,40.70
2023-01-17T08:17:21.637Z,39.50
2023-01-17T08:19:52.345Z,39.70
2023-01-17T08:22:20.570Z,39.13
2023-01-17T08:24:47.532Z,38.80
2023-01-17T08:27:14.679Z,37.63
2023-01-17T08:29:46.853Z,41.33
2023-01-17T08:32:14.695Z,48.53
2023-01-17T08:34:42.153Z,46.72
2023-01-17T08:37:11.915Z,51.28
2023-01-17T08:39:39.046Z,50.50
2023-01-17T08:42:06.196Z,47.63
2023-01-17T08:44:33.227Z,41.30
2023-01-17T08:47:01.256Z,40.90
2023-01-17T08:49:31.155Z,47.67
2023-01-17T08:51:58.169Z,47.58
2023-01-17T08:54:24.984Z,42.78
2023-01-17T08:56:52.989Z,46.92
2023-01-17T08:59:20.001Z,43.28
2023-01-17T09:01:47.070Z,40.55
2023-01-17T09:04:15.163Z,39.92
2023-01-17T09:06:45.510Z,35.65
2023-01-17T09:09:13.677Z,36.08
2023-01-17T09:11:40.536Z,41.10
2023-01-17T09:14:07.523Z,38.78
2023-01-17T09:16:34.574Z,36.72
2023-01-17T09:19:01.550Z,43.00
2023-01-17T09:21:28.519Z,36.30
2023-01-17T09:23:55.937Z,39.95
2023-01-17T09:26:30.591Z,36.50
2023-01-17T09:28:58.649Z,39.20
2023-01-17T09:31:27.056Z,35.22
2023-01-17T09:33:56.243Z,40.63
2023-01-17T09:36:26.955Z,38.30
2023-01-17T09:38:58.853Z,37.95
2023-01-17T09:41:41.413Z,48.33
2023-01-17T09:44:40.992Z,40.42
2023-01-17T09:47:43.167Z,41.08
2023-01-17T09:50:26.693Z,37.63
2023-01-17T09:53:01.310Z,39.20
2023-01-17T09:55:41.615Z,36.00
2023-01-17T09:58:19.451Z,37.00
2023-01-17T10:00:56.321Z,38.85
2023-01-17T10:04:10.422Z,40.17
2023-01-17T10:07:01.459Z,40.13
2023-01-17T10:09:52.258Z,40.78
2023-01-17T10:12:48.517Z,50.42
2023-01-17T10:15:50.302Z,51.78
2023-01-17T10:18:46.393Z,36.72
2023-01-17T10:21:42.113Z,35.65
2023-01-17T10:24:32.209Z,36.67
2023-01-17T10:27:03.363Z,40.42
2023-01-17T10:29:34.968Z,35.85
2023-01-17T10:32:03.290Z,31.45
2023-01-17T10:34:44.496Z,32.13
2023-01-17T10:37:43.790Z,31.92
2023-01-17T10:40:45.054Z,32.60
2023-01-17T10:43:47.540Z,33.17
2023-01-17T10:46:28.591Z,31.95
2023-01-17T10:48:57.447Z,32.75
2023-01-17T10:52:00.143Z,29.77
2023-01-17T10:55:09.811Z,29.00
2023-01-17T10:57:43.625Z,31.95
2023-01-17T11:00:22.415Z,30.45
2023-01-17T11:02:51.627Z,29.23
2023-01-17T11:05:29.179Z,31.80
2023-01-17T11:08:07.450Z,29.25
2023-01-17T11:10:40.311Z,31.77
2023-01-17T11:16:06.285Z,48.30
2023-01-17T11:18:39.329Z,36.47
2023-01-17T11:23:51.927Z,27.08
2023-01-17T11:26:32.734Z,25.33
2023-01-17T11:29:28.330Z,26.92
2023-01-17T11:31:56.264Z,24.73
2023-01-17T11:34:32.081Z,26.02
2023-01-17T11:37:17.626Z,26.02
2023-01-17T11:39:48.141Z,25.85
2023-01-17T11:42:37.737Z,28.13
2023-01-17T11:45:32.545Z,26.17
2023-01-17T11:48:08.454Z,23.13
2023-01-17T11:50:42.028Z,26.40
2023-01-17T11:53:23.878Z,23.10
2023-01-17T11:56:24.691Z,21.92
2023-01-17T11:58:52.532Z,24.23
2023-01-17T12:01:36.533Z,23.50
2023-01-17T12:04:36.688Z,21.92
2023-01-17T12:07:28.610Z,20.50
2023-01-17T12:10:17.443Z,20.50
2023-01-17T12:13:23.806Z,20.20
2023-01-17T12:16:01.727Z,30.05
2023-01-17T12:18:53.922Z,23.52
2023-01-17T12:21:30.707Z,21.40
2023-01-17T12:24:46.721Z,22.33
2023-01-17T12:27:34.953Z,20.73
2023-01-17T12:30:44.221Z,23.65
2023-01-17T12:33:24.856Z,22.83
2023-01-17T12:36:25.033Z,24.23
2023-01-17T12:38:51.908Z,24.23
2023-01-17T12:41:28.800Z,21.33
2023-01-17T12:44:00.330Z,21.02
2023-01-17T12:46:44.118Z,21.63
2023-01-17T12:49:26.223Z,24.67
2023-01-17T12:52:26.024Z,24.77
2023-01-17T12:55:01.907Z,19.73
2023-01-17T12:57:37.514Z,25.08
2023-01-17T13:00:19.613Z,25.02
2023-01-17T13:03:12.361Z,20.70
2023-01-17T13:05:48.896Z,20.50
2023-01-17T13:08:42.589Z,21.23
2023-01-17T13:11:44.096Z,32.70
2023-01-17T13:14:11.379Z,23.08
2023-01-17T13:16:54.700Z,22.50
2023-01-17T13:19:46.432Z,24.75
2023-01-17T13:22:21.848Z,33.97
2023-01-17T13:25:30.767Z,40.75
2023-01-17T13:28:08.096Z,40.03
2023-01-17T13:30:54.111Z,18.63
2023-01-17T13:33:30.841Z,21.23
2023-01-17T13:36:29.806Z,19.70
2023-01-17T13:39:37.276Z,40.47
2023-01-17T13:42:18.038Z,29.38
2023-01-17T13:44:46.503Z,27.40
2023-01-17T13:47:19.534Z,51.58
2023-01-17T13:52:19.396Z,109.32
2023-01-17T13:54:59.263Z,73.72
2023-01-17T13:57:28.521Z,65.70
2023-01-17T14:00:21.964Z,118.93
2023-01-17T14:02:50.748Z,64.20
2023-01-17T14:05:42.332Z,75.45
2023-01-17T14:08:21.793Z,75.00
2023-01-17T14:10:54.617Z,49.83
2023-01-17T14:13:40.506Z,40.00
2023-01-17T14:16:29.575Z,28.33
2023-01-17T14:18:56.778Z,9.80
2023-01-17T14:21:33.277Z,20.55
2023-01-17T14:24:06.482Z,14.48
2023-01-17T14:27:07.201Z,17.05
2023-01-17T14:29:56.814Z,15.73
2023-01-17T14:32:31.434Z,17.52
2023-01-17T14:34:58.576Z,20.73
2023-01-17T14:37:33.354Z,54.80
2023-01-17T14:40:01.915Z,42.15
2023-01-17T14:42:33.073Z,19.08
2023-01-17T14:45:06.629Z,24.23
2023-01-17T14:47:39.521Z,59.95
2023-01-17T14:50:24.156Z,29.15
2023-01-17T14:53:13.037Z,38.65
2023-01-17T14:55:49.123Z,37.88
2023-01-17T14:58:28.539Z,20.73
2023-01-17T15:01:00.168Z,31.17
2023-01-17T15:03:28.780Z,27.83
2023-01-17T15:06:04.874Z,14.68
2023-01-17T15:08:36.683Z,18.05
2023-01-17T15:11:09.641Z,19.02
2023-01-17T15:16:25.604Z,25.25
2023-01-17T15:18:55.281Z,17.20
2023-01-17T15:21:30.270Z,15.75
2023-01-17T15:24:01.385Z,13.27
2023-01-17T15:26:34.888Z,22.58
2023-01-17T15:29:30.762Z,12.40
2023-01-17T15:32:04.967Z,13.30
2023-01-17T15:34:45.665Z,13.52
2023-01-17T15:37:29.093Z,14.07
2023-01-17T15:40:11.577Z,17.25
2023-01-17T15:42:43.080Z,18.10
2023-01-17T15:45:19.950Z,102.88
2023-01-17T15:47:47.954Z,28.20
2023-01-17T15:50:41.136Z,28.77
2023-01-17T15:53:33.652Z,29.30
2023-01-17T15:56:01.141Z,20.77
2023-01-17T15:58:30.150Z,21.55
2023-01-17T16:00:57.591Z,23.13
2023-01-17T16:03:30.490Z,18.13
2023-01-17T16:06:00.896Z,32.33
2023-01-17T16:08:39.762Z,19.88
2023-01-17T16:11:11.543Z,21.08
2023-01-17T16:13:39.317Z,101.72
2023-01-17T16:16:25.828Z,69.70
2023-01-17T16:19:01.642Z,52.15
2023-01-17T16:21:31.505Z,33.25
2023-01-17T16:23:59.890Z,40.33
2023-01-17T16:26:29.029Z,33.75
2023-01-17T16:28:56.384Z,23.33
2023-01-17T16:31:23.391Z,18.40
2023-01-17T16:33:51.695Z,17.17
2023-01-17T16:36:20.885Z,17.13
2023-01-17T16:38:51.291Z,13.82
2023-01-17T16:41:19.269Z,16.60
2023-01-17T16:43:46.667Z,23.92
2023-01-17T16:46:13.795Z,23.40
2023-01-17T16:48:40.689Z,25.95
2023-01-17T16:51:08.493Z,54.58
2023-01-17T16:53:37.103Z,66.22
2023-01-17T16:56:13.512Z,52.53
2023-01-17T16:58:41.556Z,26.10
2023-01-17T17:01:17.523Z,26.73
2023-01-17T17:03:45.282Z,31.80
2023-01-17T17:06:13.713Z,25.20
2023-01-17T17:08:40.896Z,20.52
2023-01-17T17:11:13.678Z,18.90
2023-01-17T17:13:43.135Z,24.35
2023-01-17T17:16:15.077Z,19.27
2023-01-17T17:18:43.356Z,19.50
2023-01-17T17:21:10.398Z,18.48
2023-01-17T17:23:44.690Z,15.98
2023-01-17T17:26:11.806Z,29.58
2023-01-17T17:28:41.501Z,35.55
2023-01-17T17:31:12.820Z,32.22
2023-01-17T17:33:40.127Z,23.65
2023-01-17T17:36:12.058Z,21.52
2023-01-17T17:38:50.668Z,39.80
2023-01-17T17:41:29.814Z,55.92
2023-01-17T17:43:57.379Z,40.90
2023-01-17T17:46:30.890Z,26.92
2023-01-17T17:48:59.251Z,32.00
2023-01-17T17:51:36.220Z,64.53
2023-01-17T17:54:07.701Z,32.60
2023-01-17T17:56:35.350Z,32.63
2023-01-17T17:59:05.476Z,38.05
2023-01-17T18:01:32.675Z,22.95
2023-01-17T18:04:04.167Z,17.75
2023-01-17T18:06:31.081Z,26.15
2023-01-17T18:08:57.997Z,25.13
2023-01-17T18:11:26.988Z,19.73
2023-01-17T18:13:56.908Z,23.55
2023-01-17T18:16:36.926Z,15.50
2023-01-17T18:19:04.870Z,16.17
2023-01-17T18:21:38.068Z,19.17
2023-01-17T18:24:11.949Z,17.58
2023-01-17T18:26:45.833Z,18.33
2023-01-17T18:29:16.489Z,15.45
2023-01-17T18:31:45.364Z,13.15
2023-01-17T18:34:17.066Z,17.30
2023-01-17T18:36:44.434Z,33.38
2023-01-17T18:39:21.138Z,49.88
2023-01-17T18:41:49.355Z,83.93
2023-01-17T18:44:17.384Z,64.00
2023-01-17T18:46:44.347Z,40.60
2023-01-17T18:49:12.992Z,52.97
2023-01-17T18:51:39.963Z,50.03
2023-01-17T18:54:09.006Z,44.40
2023-01-17T18:56:36.316Z,37.20
2023-01-17T18:59:06.970Z,24.48
2023-01-17T19:01:36.144Z,21.33
2023-01-17T19:04:05.515Z,20.80
2023-01-17T19:06:37.124Z,26.42
2023-01-17T19:09:07.412Z,20.38
2023-01-17T19:11:36.640Z,14.93
2023-01-17T19:14:04.831Z,13.88
2023-01-17T19:16:36.912Z,13.02
2023-01-17T19:19:08.410Z,11.13
2023-01-17T19:21:35.925Z,15.10
2023-01-17T19:24:03.067Z,32.13
2023-01-17T19:26:30.162Z,38.53
2023-01-17T19:29:05.057Z,27.02
2023-01-17T19:31:37.345Z,30.80
2023-01-17T19:34:04.613Z,15.18
2023-01-17T19:36:34.927Z,16.65
2023-01-17T19:39:05.908Z,21.75
2023-01-17T19:41:45.699Z,17.63
2023-01-17T19:44:14.426Z,23.10
2023-01-17T19:46:41.466Z,21.55
2023-01-17T19:49:09.122Z,29.33
2023-01-17T19:51:37.287Z,25.33
2023-01-17T19:54:06.381Z,27.13
2023-01-17T19:56:33.486Z,24.25
2023-01-17T19:59:03.029Z,31.15
2023-01-17T20:01:33.494Z,25.55
2023-01-17T20:04:05.734Z,35.00
2023-01-17T20:06:35.655Z,33.13
2023-01-17T20:09:05.187Z,22.60
2023-01-17T20:11:32.666Z,20.80
2023-01-17T20:14:00.405Z,21.92
2023-01-17T20:16:31.570Z,28.88
2023-01-17T20:19:00.137Z,23.38
2023-01-17T20:21:29.509Z,16.38
2023-01-17T20:23:59.173Z,18.90
2023-01-17T20:26:35.738Z,32.00
2023-01-17T20:29:17.050Z,33.80
2023-01-17T20:31:45.846Z,33.92
2023-01-17T20:34:14.443Z,22.17
2023-01-17T20:36:42.263Z,17.27
2023-01-17T20:39:13.153Z,14.30
2023-01-17T20:41:43.565Z,16.73
2023-01-17T20:44:15.708Z,22.15
2023-01-17T20:46:43.659Z,18.48
2023-01-17T20:49:16.511Z,49.78
2023-01-17T20:51:45.311Z,42.67
2023-01-17T20:54:15.888Z,49.95
2023-01-17T20:56:43.425Z,16.85
2023-01-17T20:59:16.941Z,14.55
2023-01-17T21:01:45.261Z,17.85
2023-01-17T21:04:13.171Z,13.40
2023-01-17T21:06:42.422Z,15.32
2023-01-17T21:09:14.508Z,14.00
2023-01-17T21:11:41.776Z,12.03
2023-01-17T21:14:08.704Z,10.25
2023-01-17T21:16:35.884Z,9.15
2023-01-17T21:19:03.497Z,7.25
2023-01-17T21:21:30.756Z,7.30
2023-01-17T21:23:59.916Z,8.07
2023-01-17T21:26:28.781Z,9.30
2023-01-17T21:28:55.950Z,8.82
2023-01-17T21:31:28.108Z,9.40
2023-01-17T21:34:01.975Z,8.57
2023-01-17T21:36:35.711Z,9.30
2023-01-17T21:39:06.597Z,7.85
2023-01-17T21:41:40.401Z,9.80
2023-01-17T21:44:14.903Z,10.10
2023-01-17T21:46:42.311Z,10.25
2023-01-17T21:49:11.766Z,14.13
2023-01-17T21:51:55.543Z,12.18
2023-01-17T21:54:46.781Z,13.63
2023-01-17T21:57:35.927Z,9.23
2023-01-17T22:00:06.411Z,11.00
2023-01-17T22:02:33.402Z,9.88
2023-01-17T22:05:00.374Z,8.68
2023-01-17T22:07:27.414Z,10.50
2023-01-17T22:09:54.774Z,9.32
2023-01-17T22:12:21.632Z,11.25
2023-01-17T22:14:48.652Z,10.93
2023-01-17T22:17:15.764Z,9.50
2023-01-17T22:19:44.296Z,8.88
2023-01-17T22:22:11.400Z,31.67
2023-01-17T22:24:38.502Z,57.53
2023-01-17T22:27:06.522Z,41.72
2023-01-17T22:29:34.036Z,31.40
2023-01-17T22:32:00.890Z,21.70
2023-01-17T22:34:27.824Z,34.47
2023-01-17T22:36:54.997Z,22.10
2023-01-17T22:39:21.974Z,18.27
2023-01-17T22:41:49.052Z,23.35
2023-01-17T22:44:16.014Z,16.33
2023-01-17T22:46:43.071Z,9.18
2023-01-17T22:49:13.313Z,11.07
2023-01-17T22:51:40.212Z,11.60
2023-01-17T22:54:07.201Z,11.15
2023-01-17T22:56:34.776Z,9.43
2023-01-17T22:59:02.352Z,11.32
2023-01-17T23:01:32.719Z,8.98
2023-01-17T23:04:04.800Z,22.83
2023-01-17T23:06:38.868Z,18.80
2023-01-17T23:09:15.332Z,12.73
2023-01-17T23:11:50.760Z,14.25
2023-01-17T23:14:19.123Z,13.18
2023-01-17T23:17:22.356Z,16.33
2023-01-17T23:19:52.722Z,13.30
2023-01-17T23:22:27.206Z,17.70
2023-01-17T23:24:59.608Z,13.93
2023-01-17T23:28:05.710Z,13.07
2023-01-17T23:30:40.253Z,11.18
2023-01-17T23:33:11.176Z,10.90
2023-01-17T23:35:44.366Z,15.40
2023-01-17T23:38:33.649Z,16.08
2023-01-17T23:41:27.757Z,17.05
2023-01-17T23:43:58.964Z,18.35
2023-01-17T23:46:27.291Z,23.50
2023-01-17T23:48:55.084Z,18.20
2023-01-17T23:51:22.587Z,15.25
2023-01-17T23:53:50.932Z,15.05
2023-01-17T23:56:22.650Z,17.25
2023-01-17T23:58:50.344Z,19.80
